Time;durP1;ratioP1;P1;durP2;ratioP2;P2;SDS_P1;SDS_P2;PMS_P1;PMS_P2;Temp;Humidity;BMP_temperature;BMP_pressure;BME280_temperature;BME280_humidity;BME280_pressure;Samples;Min_cycle;Max_cycle;Signal;HPM_P1;HPM_P2
2021/03/06 00:01:15;;;;;;;4.83;3.60;;;0.10;99.90;;;;;;5015175;28;20456;-88
2021/03/06 00:03:42;;;;;;;4.17;3.20;;;0.10;99.90;;;;;;5013815;28;20472;-86
2021/03/06 00:06:10;;;;;;;4.30;2.97;;;0.20;99.90;;;;;;5014214;28;20459;-86
2021/03/06 00:08:37;;;;;;;6.00;3.20;;;0.20;99.90;;;;;;5013429;28;20954;-86
2021/03/06 00:11:03;;;;;;;8.07;2.80;;;0.10;99.90;;;;;;5014820;28;20582;-86
2021/03/06 00:13:29;;;;;;;4.70;2.83;;;0.30;99.90;;;;;;5014865;28;20448;-87
2021/03/06 00:15:56;;;;;;;3.73;2.90;;;0.10;99.90;;;;;;5014829;28;20466;-87
2021/03/06 00:18:22;;;;;;;3.23;2.93;;;0.10;99.90;;;;;;5013487;28;21034;-86
2021/03/06 00:20:49;;;;;;;3.53;2.70;;;0.10;99.90;;;;;;5014700;28;20451;-88
2021/03/06 00:23:15;;;;;;;7.93;3.10;;;0.20;99.90;;;;;;5014644;28;20455;-86
2021/03/06 00:25:42;;;;;;;5.40;3.00;;;0.20;99.90;;;;;;5014433;28;20450;-88
2021/03/06 00:28:09;;;;;;;3.30;2.83;;;0.10;99.90;;;;;;5014561;28;20923;-87
2021/03/06 00:30:36;;;;;;;5.03;3.17;;;0.00;99.90;;;;;;5014516;28;20506;-87
2021/03/06 00:33:03;;;;;;;5.63;3.60;;;-0.10;99.90;;;;;;5010727;28;20448;-87
2021/03/06 00:35:30;;;;;;;5.30;3.20;;;-0.10;99.90;;;;;;5013009;28;20502;-86
2021/03/06 00:37:56;;;;;;;4.43;3.00;;;0.00;99.90;;;;;;5014283;28;20493;-87
2021/03/06 00:40:23;;;;;;;4.87;3.47;;;0.00;99.90;;;;;;5014192;28;20457;-86
2021/03/06 00:42:50;;;;;;;3.30;3.00;;;-0.10;99.90;;;;;;5013989;28;20479;-87
2021/03/06 00:45:17;;;;;;;4.93;3.23;;;-0.10;99.90;;;;;;5014238;28;20457;-87
2021/03/06 00:47:43;;;;;;;4.70;2.90;;;-0.10;99.90;;;;;;5010425;28;20470;-87
2021/03/06 00:50:12;;;;;;;5.33;3.47;;;-0.20;99.90;;;;;;5013738;28;20452;-87
2021/03/06 00:52:38;;;;;;;3.90;3.20;;;-0.20;99.90;;;;;;5013892;28;20462;-86
2021/03/06 00:55:06;;;;;;;3.80;3.10;;;-0.20;99.90;;;;;;5013792;28;20477;-87
2021/03/06 00:57:32;;;;;;;5.40;3.47;;;-0.20;99.90;;;;;;5013918;28;20511;-86
2021/03/06 00:59:59;;;;;;;4.37;3.23;;;-0.20;99.90;;;;;;5013850;28;20451;-86
2021/03/06 01:02:26;;;;;;;4.00;3.27;;;-0.20;99.90;;;;;;5012747;28;20456;-86
2021/03/06 01:04:52;;;;;;;5.50;3.47;;;-0.30;99.90;;;;;;5013895;28;20451;-87
2021/03/06 01:07:18;;;;;;;6.70;3.20;;;-0.30;99.90;;;;;;5013417;28;20455;-87
2021/03/06 01:09:44;;;;;;;5.60;3.43;;;-0.30;99.90;;;;;;5013637;28;20459;-87
2021/03/06 01:12:11;;;;;;;4.40;3.83;;;-0.30;99.90;;;;;;5013561;28;20454;-88
2021/03/06 01:14:37;;;;;;;3.97;3.10;;;-0.40;99.90;;;;;;5013532;28;20467;-86
2021/03/06 01:17:04;;;;;;;4.67;3.07;;;-0.30;99.90;;;;;;5013498;28;20557;-87
2021/03/06 01:19:31;;;;;;;4.00;2.97;;;-0.40;99.90;;;;;;5011660;28;20522;-86
2021/03/06 01:21:57;;;;;;;3.30;3.00;;;-0.40;99.90;;;;;;5013438;28;20514;-87
2021/03/06 01:24:23;;;;;;;4.50;3.30;;;-0.40;99.90;;;;;;5013381;28;20460;-86
2021/03/06 01:26:49;;;;;;;4.30;3.20;;;-0.40;99.90;;;;;;5013498;28;20458;-86
2021/03/06 01:29:16;;;;;;;4.50;3.87;;;-0.50;99.90;;;;;;5013155;28;20543;-87
2021/03/06 01:31:42;;;;;;;6.13;3.90;;;-0.50;99.90;;;;;;5013314;28;20463;-87
2021/03/06 01:34:09;;;;;;;6.87;3.90;;;-0.50;99.90;;;;;;5012497;28;20442;-86
2021/03/06 01:36:36;;;;;;;5.03;4.10;;;-0.50;99.90;;;;;;5013113;28;20450;-86
2021/03/06 01:39:02;;;;;;;4.03;3.17;;;-0.50;99.90;;;;;;5013239;28;20459;-87
2021/03/06 01:41:29;;;;;;;4.50;3.30;;;-0.40;99.90;;;;;;5012913;28;20519;-86
2021/03/06 01:43:55;;;;;;;5.73;3.57;;;-0.40;99.90;;;;;;5011769;28;20451;-86
2021/03/06 01:46:21;;;;;;;5.00;4.03;;;-0.30;99.90;;;;;;5013129;28;20466;-87
2021/03/06 01:48:47;;;;;;;5.10;3.37;;;-0.40;99.90;;;;;;5011982;28;20444;-87
2021/03/06 01:51:14;;;;;;;5.17;3.90;;;-0.50;99.90;;;;;;5012817;28;20866;-87
2021/03/06 01:53:42;;;;;;;4.60;3.50;;;-0.60;99.90;;;;;;5013084;28;20507;-87
2021/03/06 01:56:08;;;;;;;5.77;3.73;;;-0.60;99.90;;;;;;5012656;28;20494;-88
2021/03/06 01:58:35;;;;;;;7.73;4.50;;;-0.70;99.90;;;;;;5012792;28;21028;-86
2021/03/06 02:01:02;;;;;;;5.10;3.47;;;-0.70;99.90;;;;;;5012951;28;20458;-87
2021/03/06 02:03:28;;;;;;;6.17;3.90;;;-0.80;99.90;;;;;;5011945;28;20446;-87
2021/03/06 02:05:54;;;;;;;5.20;4.00;;;-0.80;99.90;;;;;;5012710;28;20455;-86
2021/03/06 02:08:22;;;;;;;4.57;3.60;;;-0.80;99.90;;;;;;5012756;28;20473;-87
2021/03/06 02:10:48;;;;;;;4.70;3.87;;;-0.80;99.90;;;;;;5012329;28;20845;-86
2021/03/06 02:13:41;;;;;;;5.83;3.93;;;-0.80;99.90;;;;;;5012892;28;20452;-89
2021/03/06 02:16:15;;;;;;;4.73;4.17;;;-0.90;99.90;;;;;;5012695;28;20457;-87
2021/03/06 02:18:47;;;;;;;4.50;3.40;;;-1.00;99.90;;;;;;5011232;28;20490;-86
2021/03/06 02:21:29;;;;;;;4.90;3.83;;;-1.10;99.90;;;;;;5012599;28;20456;-87
2021/03/06 02:24:22;;;;;;;5.70;4.60;;;-1.30;99.90;;;;;;5012698;28;20512;-87
2021/03/06 02:27:03;;;;;;;4.53;3.70;;;-1.30;99.90;;;;;;5012548;28;20516;-87
2021/03/06 02:29:38;;;;;;;6.40;3.70;;;-1.40;99.90;;;;;;5013456;28;20442;-87
2021/03/06 02:32:09;;;;;;;4.90;3.60;;;-1.40;99.90;;;;;;5016858;28;20446;-87
2021/03/06 02:34:39;;;;;;;6.23;4.20;;;-1.40;99.90;;;;;;5015563;28;20455;-88
2021/03/06 02:37:08;;;;;;;4.40;3.60;;;-1.50;99.90;;;;;;5016458;28;20990;-87
2021/03/06 02:39:39;;;;;;;5.10;3.87;;;-1.40;99.90;;;;;;5016178;28;21172;-88
2021/03/06 02:42:06;;;;;;;6.60;5.03;;;-1.40;99.90;;;;;;5016768;28;20501;-88
2021/03/06 02:44:36;;;;;;;4.50;4.03;;;-1.40;99.90;;;;;;5013989;28;20464;-87
2021/03/06 02:47:03;;;;;;;4.57;3.93;;;-1.40;99.90;;;;;;5016865;28;20515;-87
2021/03/06 02:49:30;;;;;;;5.37;4.03;;;-1.30;99.90;;;;;;5015543;28;20462;-86
2021/03/06 02:51:56;;;;;;;4.73;3.60;;;-1.20;99.90;;;;;;5016495;28;20474;-87
2021/03/06 02:54:22;;;;;;;5.33;3.97;;;-1.20;99.90;;;;;;5016327;28;20477;-87
2021/03/06 02:56:49;;;;;;;3.10;2.80;;;-1.10;99.90;;;;;;5015318;28;20493;-85
2021/03/06 02:59:29;;;;;;;2.93;2.60;;;-1.10;99.90;;;;;;5015094;28;20475;-87
2021/03/06 03:02:08;;;;;;;3.67;3.30;;;-1.10;99.90;;;;;;5012674;28;20459;-87
2021/03/06 03:04:46;;;;;;;5.43;4.20;;;-1.00;99.90;;;;;;5013943;28;20460;-86
2021/03/06 03:07:20;;;;;;;4.40;3.70;;;-1.20;99.90;;;;;;5012060;28;20457;-86
2021/03/06 03:09:51;;;;;;;3.50;3.20;;;-1.20;99.90;;;;;;5014912;28;20541;-87
2021/03/06 03:12:23;;;;;;;5.50;4.10;;;-1.20;99.90;;;;;;5014693;28;21002;-87
2021/03/06 03:14:54;;;;;;;4.73;3.43;;;-1.10;99.90;;;;;;5014764;28;20459;-87
2021/03/06 03:17:27;;;;;;;5.00;3.80;;;-1.00;99.90;;;;;;5014137;28;20537;-87
2021/03/06 03:19:58;;;;;;;4.40;3.67;;;-1.10;99.90;;;;;;5014758;28;20446;-86
2021/03/06 03:22:27;;;;;;;5.37;3.73;;;-1.00;99.90;;;;;;5014396;28;20454;-87
2021/03/06 03:24:56;;;;;;;4.23;3.80;;;-1.00;99.90;;;;;;5014604;28;20456;-88
2021/03/06 03:27:25;;;;;;;4.17;3.77;;;-1.00;99.90;;;;;;5014520;28;20462;-87
2021/03/06 03:29:53;;;;;;;3.53;2.93;;;-1.10;99.90;;;;;;5014604;28;20781;-87
2021/03/06 03:32:23;;;;;;;4.23;3.73;;;-1.00;99.90;;;;;;5014376;28;20445;-87
2021/03/06 03:34:50;;;;;;;3.70;3.40;;;-1.10;99.90;;;;;;5013989;28;20458;-86
2021/03/06 03:37:17;;;;;;;7.07;3.90;;;-1.10;99.90;;;;;;5014188;28;20496;-87
2021/03/06 03:39:44;;;;;;;4.27;3.37;;;-1.10;99.90;;;;;;5014274;28;20448;-88
2021/03/06 03:42:11;;;;;;;3.60;3.17;;;-1.20;99.90;;;;;;5013217;28;20485;-89
2021/03/06 03:44:39;;;;;;;5.30;3.53;;;-1.40;99.90;;;;;;5014185;28;20463;-87
2021/03/06 03:47:07;;;;;;;5.10;3.60;;;-1.40;99.90;;;;;;5013994;28;20621;-88
2021/03/06 03:49:33;;;;;;;5.03;3.50;;;-1.50;99.90;;;;;;5013108;28;20459;-89
2021/03/06 03:52:01;;;;;;;4.50;3.87;;;-1.60;99.90;;;;;;5012616;28;20455;-88
2021/03/06 03:54:28;;;;;;;4.50;3.63;;;-1.70;99.90;;;;;;5013904;28;21042;-87
2021/03/06 03:56:54;;;;;;;6.40;4.23;;;-1.70;99.90;;;;;;4994618;28;576548;-87
2021/03/06 03:59:21;;;;;;;5.73;4.87;;;-1.80;99.90;;;;;;5014995;28;20655;-87
2021/03/06 04:01:47;;;;;;;11.50;4.43;;;-1.90;99.90;;;;;;5012554;28;20462;-88
2021/03/06 04:04:28;;;;;;;9.40;3.50;;;-1.90;99.90;;;;;;5012625;28;20947;-87
2021/03/06 04:06:55;;;;;;;4.67;4.00;;;-1.90;99.90;;;;;;5014747;28;20467;-87
2021/03/06 04:09:22;;;;;;;6.60;4.07;;;-2.00;99.90;;;;;;5014901;28;20473;-88
2021/03/06 04:11:49;;;;;;;6.20;4.30;;;-2.00;99.90;;;;;;5010678;28;20450;-87
2021/03/06 04:14:15;;;;;;;4.77;3.90;;;-2.00;99.90;;;;;;5014496;28;20442;-89
2021/03/06 04:16:42;;;;;;;5.60;4.00;;;-2.10;99.90;;;;;;5012276;28;20513;-88
2021/03/06 04:19:08;;;;;;;11.97;4.70;;;-2.10;99.90;;;;;;5010898;28;20491;-89
2021/03/06 04:21:35;;;;;;;5.70;4.40;;;-2.10;99.90;;;;;;5014428;28;20450;-86
2021/03/06 04:24:01;;;;;;;5.57;4.23;;;-2.10;99.90;;;;;;5012020;28;20458;-87
2021/03/06 04:26:29;;;;;;;6.83;4.10;;;-2.10;99.90;;;;;;5014526;28;20459;-88
2021/03/06 04:28:55;;;;;;;8.03;4.97;;;-2.10;99.90;;;;;;5014648;28;20837;-88
2021/03/06 04:31:21;;;;;;;7.90;5.10;;;-2.10;99.90;;;;;;5014610;28;20518;-87
2021/03/06 04:33:48;;;;;;;5.40;4.10;;;-2.20;99.90;;;;;;5013537;28;20454;-87
2021/03/06 04:36:15;;;;;;;6.30;4.00;;;-2.20;99.90;;;;;;5014328;28;20463;-88
2021/03/06 04:38:41;;;;;;;5.50;4.33;;;-2.20;99.90;;;;;;5011665;28;20567;-87
2021/03/06 04:41:07;;;;;;;6.30;5.00;;;-2.30;99.90;;;;;;5014549;28;20448;-88
2021/03/06 04:43:34;;;;;;;7.30;4.50;;;-2.30;99.90;;;;;;5014274;28;20465;-88
2021/03/06 04:46:01;;;;;;;9.30;4.47;;;-2.40;99.90;;;;;;5014463;28;20458;-87
2021/03/06 04:48:28;;;;;;;4.37;3.97;;;-2.40;99.90;;;;;;5010954;28;20952;-87
2021/03/06 04:50:54;;;;;;;5.80;4.77;;;-2.40;99.90;;;;;;5014136;28;20777;-87
2021/03/06 04:53:20;;;;;;;7.00;4.37;;;-2.50;99.90;;;;;;5014006;28;20478;-88
2021/03/06 04:55:47;;;;;;;6.80;4.00;;;-2.50;99.90;;;;;;5014086;28;20494;-88
2021/03/06 04:58:13;;;;;;;8.83;4.17;;;-2.60;99.90;;;;;;5014074;28;20496;-88
2021/03/06 05:00:40;;;;;;;7.23;4.40;;;-2.60;99.90;;;;;;5013712;28;20448;-88
2021/03/06 05:03:06;;;;;;;6.53;4.70;;;-2.60;99.90;;;;;;5012974;28;20819;-88
2021/03/06 05:05:32;;;;;;;6.90;4.77;;;-2.70;99.90;;;;;;5011416;28;21140;-88
2021/03/06 05:07:59;;;;;;;5.43;4.47;;;-2.70;99.90;;;;;;5013892;28;20966;-89
2021/03/06 05:10:25;;;;;;;7.00;4.67;;;-2.80;99.90;;;;;;5013876;28;20456;-88
2021/03/06 05:12:52;;;;;;;9.77;4.97;;;-2.80;99.90;;;;;;5012620;28;20960;-87
2021/03/06 05:15:18;;;;;;;6.57;4.63;;;-2.80;99.90;;;;;;5013924;28;20507;-88
2021/03/06 05:17:45;;;;;;;5.33;4.10;;;-2.80;99.90;;;;;;5012652;28;20497;-88
2021/03/06 05:20:13;;;;;;;7.60;4.13;;;-2.90;99.90;;;;;;5013842;28;20462;-87
2021/03/06 05:22:39;;;;;;;5.33;4.33;;;-2.90;99.90;;;;;;5010358;28;20481;-87
2021/03/06 05:25:07;;;;;;;5.00;4.37;;;-2.90;99.90;;;;;;5013458;28;20457;-88
2021/03/06 05:27:33;;;;;;;6.93;4.37;;;-3.00;99.90;;;;;;5012356;28;20955;-88
2021/03/06 05:29:59;;;;;;;8.50;4.30;;;-3.00;99.90;;;;;;5013629;28;20455;-86
2021/03/06 05:32:26;;;;;;;5.73;4.20;;;-3.00;99.90;;;;;;5012957;28;20451;-87
2021/03/06 05:34:53;;;;;;;5.53;4.10;;;-3.00;99.90;;;;;;5013230;28;20807;-88
2021/03/06 05:37:19;;;;;;;6.03;5.00;;;-3.00;99.90;;;;;;5013487;28;20482;-88
2021/03/06 05:39:45;;;;;;;5.70;4.50;;;-3.10;99.90;;;;;;5013563;28;20515;-87
2021/03/06 05:42:12;;;;;;;6.03;4.67;;;-3.00;99.90;;;;;;5013516;28;20454;-88
2021/03/06 05:44:38;;;;;;;6.07;4.70;;;-3.00;99.90;;;;;;5013359;28;20457;-87
2021/03/06 05:47:05;;;;;;;7.97;4.80;;;-3.00;99.90;;;;;;5013344;28;20462;-87
2021/03/06 05:49:33;;;;;;;7.07;5.10;;;-3.20;99.90;;;;;;5012482;28;20785;-88
2021/03/06 05:52:01;;;;;;;8.10;4.77;;;-3.20;99.90;;;;;;5013292;28;20457;-88
2021/03/06 05:54:30;;;;;;;6.97;4.67;;;-3.20;99.90;;;;;;5013107;28;21052;-87
2021/03/06 05:56:56;;;;;;;6.00;4.30;;;-3.20;99.90;;;;;;5012726;28;20495;-87
2021/03/06 05:59:27;;;;;;;6.27;4.20;;;-3.30;99.90;;;;;;5013223;28;20445;-88
2021/03/06 06:01:54;;;;;;;7.33;4.83;;;-3.20;99.90;;;;;;5010531;28;20448;-87
2021/03/06 06:04:20;;;;;;;6.77;5.30;;;-3.30;99.90;;;;;;5011121;28;20471;-89
2021/03/06 06:06:46;;;;;;;5.10;4.37;;;-3.20;99.90;;;;;;5013207;28;20461;-89
2021/03/06 06:09:14;;;;;;;5.53;4.20;;;-3.30;99.90;;;;;;5012970;28;20471;-87
2021/03/06 06:11:40;;;;;;;5.63;4.00;;;-3.20;99.90;;;;;;5013039;28;20453;-88
2021/03/06 06:14:06;;;;;;;8.77;4.50;;;-3.30;99.90;;;;;;5007773;28;20448;-87
2021/03/06 06:16:34;;;;;;;6.97;5.47;;;-3.20;99.90;;;;;;5012873;28;20448;-88
2021/03/06 06:19:01;;;;;;;6.43;4.37;;;-3.00;99.90;;;;;;5011507;28;20920;-87
2021/03/06 06:21:38;;;;;;;5.60;4.53;;;-2.70;99.90;;;;;;5010352;28;20548;-88
2021/03/06 06:24:05;;;;;;;6.73;4.47;;;-2.50;99.90;;;;;;5012613;28;20444;-87
2021/03/06 06:26:32;;;;;;;4.40;3.57;;;-2.10;99.90;;;;;;5012807;28;20490;-86
2021/03/06 06:28:59;;;;;;;5.17;4.20;;;-1.90;99.90;;;;;;5012788;28;20443;-87
2021/03/06 06:31:25;;;;;;;5.00;4.43;;;-1.70;99.90;;;;;;5012835;28;20451;-88
2021/03/06 06:33:52;;;;;;;7.13;4.07;;;-1.40;99.90;;;;;;5009815;28;20455;-87
2021/03/06 06:36:33;;;;;;;6.40;4.23;;;-1.20;99.90;;;;;;5012643;28;20449;-88
2021/03/06 06:38:59;;;;;;;5.10;4.27;;;-0.90;99.90;;;;;;5012458;28;20495;-87
2021/03/06 06:41:47;;;;;;;6.07;4.70;;;-0.70;99.90;;;;;;5012578;28;20785;-88
2021/03/06 06:44:14;;;;;;;5.80;4.57;;;-0.50;99.90;;;;;;5012521;28;20460;-87
2021/03/06 06:46:41;;;;;;;5.03;4.13;;;-0.30;99.90;;;;;;5012432;28;20459;-88
2021/03/06 06:49:07;;;;;;;5.00;4.50;;;-0.20;99.90;;;;;;5011335;28;20449;-87
2021/03/06 06:51:33;;;;;;;6.27;4.47;;;-0.10;99.90;;;;;;5012331;28;20807;-88
2021/03/06 06:54:10;;;;;;;4.87;4.30;;;0.00;99.90;;;;;;5011856;28;20468;-87
2021/03/06 06:56:37;;;;;;;5.73;4.97;;;0.20;99.90;;;;;;5012106;28;21029;-89
2021/03/06 06:59:04;;;;;;;5.20;4.50;;;0.20;99.90;;;;;;5011909;28;20556;-87
2021/03/06 07:01:33;;;;;;;5.47;4.50;;;0.20;99.90;;;;;;4984188;28;20834;-87
2021/03/06 07:04:05;;;;;;;5.67;4.70;;;0.30;99.90;;;;;;4980838;28;20516;-88
2021/03/06 07:06:32;;;;;;;5.43;4.53;;;0.50;99.90;;;;;;4983261;28;20832;-87
2021/03/06 07:09:09;;;;;;;4.90;4.40;;;0.70;99.90;;;;;;4990845;28;20511;-87
2021/03/06 07:11:36;;;;;;;4.93;4.43;;;0.80;99.90;;;;;;4992764;28;20802;-87
2021/03/06 07:14:02;;;;;;;5.23;4.73;;;1.10;99.90;;;;;;4992490;28;20445;-88
2021/03/06 07:16:59;;;;;;;5.10;4.60;;;1.20;99.90;;;;;;4994727;28;20445;-87
2021/03/06 07:19:27;;;;;;;8.63;5.30;;;1.60;99.90;;;;;;4994830;28;20488;-87
2021/03/06 07:21:53;;;;;;;10.10;4.70;;;2.10;99.90;;;;;;4996142;28;20441;-86
2021/03/06 07:24:20;;;;;;;4.37;3.97;;;1.90;99.80;;;;;;4996100;28;20441;-87
2021/03/06 07:26:51;;;;;;;14.60;4.83;;;1.90;99.90;;;;;;4995977;28;20456;-88
2021/03/06 07:29:18;;;;;;;5.63;4.40;;;2.10;99.90;;;;;;4995863;28;20453;-87
2021/03/06 07:31:48;;;;;;;4.80;4.40;;;2.30;99.10;;;;;;4995853;28;20444;-87
2021/03/06 07:34:17;;;;;;;12.83;4.87;;;2.40;98.70;;;;;;4994882;28;20449;-88
2021/03/06 07:36:45;;;;;;;6.97;5.17;;;2.90;97.80;;;;;;4995860;28;20450;-87
2021/03/06 07:39:13;;;;;;;9.30;4.90;;;2.60;98.20;;;;;;4994600;28;20492;-87
2021/03/06 07:41:42;;;;;;;6.50;4.60;;;2.80;98.10;;;;;;4994640;28;20453;-86
2021/03/06 07:44:12;;;;;;;7.60;5.67;;;3.20;97.30;;;;;;4995751;28;20453;-86
2021/03/06 07:46:39;;;;;;;6.43;4.40;;;3.50;96.60;;;;;;4995957;28;20552;-87
2021/03/06 07:49:11;;;;;;;6.90;5.20;;;3.40;96.80;;;;;;4991102;28;20449;-87
2021/03/06 07:51:42;;;;;;;5.30;4.80;;;3.50;96.20;;;;;;4993981;28;20457;-88
2021/03/06 07:54:13;;;;;;;7.10;5.27;;;3.70;96.60;;;;;;4996596;28;20569;-86
2021/03/06 07:56:39;;;;;;;7.30;5.13;;;4.00;95.60;;;;;;5001740;28;20481;-87
2021/03/06 07:59:05;;;;;;;5.70;4.70;;;4.20;95.30;;;;;;4995876;28;20808;-87
2021/03/06 08:01:33;;;;;;;7.93;4.60;;;3.80;95.70;;;;;;4997478;28;20464;-88
2021/03/06 08:04:00;;;;;;;6.30;4.93;;;3.80;96.10;;;;;;5002932;28;20468;-86
2021/03/06 08:06:28;;;;;;;6.40;5.17;;;3.70;96.20;;;;;;5000738;28;20449;-86
2021/03/06 08:09:06;;;;;;;6.30;5.20;;;3.70;95.60;;;;;;4995414;28;20453;-89
2021/03/06 08:11:41;;;;;;;8.33;5.17;;;4.40;95.20;;;;;;4996257;28;20800;-88
2021/03/06 08:14:37;;;;;;;6.07;4.80;;;4.60;94.70;;;;;;4995695;28;20448;-88
2021/03/06 08:17:04;;;;;;;6.30;4.33;;;4.50;94.90;;;;;;4995502;28;20484;-87
2021/03/06 08:19:31;;;;;;;8.63;4.73;;;4.50;94.40;;;;;;4994433;28;20508;-89
2021/03/06 08:22:14;;;;;;;5.03;4.47;;;4.90;93.80;;;;;;4991983;28;20464;-90
2021/03/06 08:24:42;;;;;;;4.77;4.20;;;5.20;93.70;;;;;;4995483;28;20480;-89
2021/03/06 08:27:30;;;;;;;5.43;4.97;;;4.60;93.80;;;;;;4995327;28;20453;-90
2021/03/06 08:29:57;;;;;;;6.67;4.13;;;5.20;93.40;;;;;;4995371;28;20858;-91
2021/03/06 08:32:31;;;;;;;6.17;5.27;;;4.40;93.60;;;;;;4995779;28;20453;-87
2021/03/06 08:34:59;;;;;;;10.50;5.00;;;5.60;93.40;;;;;;4994072;28;20890;-88
2021/03/06 08:37:33;;;;;;;6.20;5.60;;;5.40;93.10;;;;;;4994898;28;20454;-89
2021/03/06 08:40:04;;;;;;;6.33;5.43;;;6.40;91.90;;;;;;4995271;28;20473;-89
2021/03/06 08:42:32;;;;;;;8.67;5.50;;;6.90;90.90;;;;;;4995129;28;20450;-87
2021/03/06 08:45:01;;;;;;;6.07;5.53;;;7.30;90.90;;;;;;4995196;28;20457;-90
2021/03/06 08:47:30;;;;;;;7.43;5.50;;;7.70;88.90;;;;;;4994762;28;20449;-89
2021/03/06 08:49:58;;;;;;;12.67;5.00;;;7.30;88.00;;;;;;4995264;28;20445;-88
2021/03/06 08:52:25;;;;;;;7.30;5.33;;;7.10;88.80;;;;;;4993738;28;20507;-89
2021/03/06 08:54:52;;;;;;;6.37;5.00;;;5.90;90.10;;;;;;4994718;28;20980;-89
2021/03/06 08:57:28;;;;;;;7.63;5.63;;;6.60;90.20;;;;;;4994394;28;20543;-88
2021/03/06 08:59:55;;;;;;;6.30;5.23;;;7.30;90.20;;;;;;4994533;28;20449;-88
2021/03/06 09:02:26;;;;;;;16.90;5.30;;;7.40;87.90;;;;;;4994654;28;20457;-88
2021/03/06 09:05:00;;;;;;;6.00;4.90;;;6.90;86.80;;;;;;4994158;28;20457;-88
2021/03/06 09:07:28;;;;;;;5.73;4.90;;;7.10;86.70;;;;;;4994503;28;20448;-87
2021/03/06 09:09:54;;;;;;;6.03;5.43;;;6.90;85.90;;;;;;4994306;28;20453;-88
2021/03/06 09:12:21;;;;;;;7.10;5.37;;;6.50;86.50;;;;;;4994707;28;20575;-90
2021/03/06 09:14:48;;;;;;;8.50;7.70;;;7.00;87.50;;;;;;4994574;28;20850;-89
2021/03/06 09:17:15;;;;;;;4.93;4.43;;;7.80;84.90;;;;;;4994793;28;20476;-88
2021/03/06 09:19:41;;;;;;;7.03;4.80;;;7.60;82.20;;;;;;4991242;28;20501;-86
2021/03/06 09:22:09;;;;;;;5.10;4.50;;;8.20;81.60;;;;;;4993712;28;20449;-88
2021/03/06 09:24:46;;;;;;;6.47;4.60;;;7.40;82.30;;;;;;4978299;28;20477;-87
2021/03/06 09:27:12;;;;;;;6.17;4.17;;;7.00;85.40;;;;;;4974349;28;20453;-87
2021/03/06 09:29:39;;;;;;;4.60;4.00;;;6.50;84.60;;;;;;4974684;28;20461;-88
2021/03/06 09:32:07;;;;;;;4.60;4.10;;;6.40;84.70;;;;;;4974290;28;20459;-88
2021/03/06 09:34:37;;;;;;;6.00;5.40;;;7.20;83.80;;;;;;4973089;28;20505;-88
2021/03/06 09:37:14;;;;;;;7.70;4.43;;;8.10;80.50;;;;;;4912219;29;20457;-90
2021/03/06 09:39:40;;;;;;;5.60;4.83;;;8.00;79.20;;;;;;4914041;29;20507;-87
2021/03/06 09:42:08;;;;;;;6.20;4.13;;;7.60;78.70;;;;;;4914449;29;20453;-84
2021/03/06 09:44:34;;;;;;;3.93;3.37;;;7.00;81.30;;;;;;4924834;29;20453;-86
2021/03/06 09:47:01;;;;;;;4.73;4.33;;;6.60;82.80;;;;;;4917295;29;20512;-88
2021/03/06 09:49:35;;;;;;;5.40;4.10;;;7.30;82.60;;;;;;4914205;29;20519;-87
2021/03/06 09:52:02;;;;;;;4.80;4.10;;;7.50;80.70;;;;;;4915208;29;20961;-87
2021/03/06 09:54:35;;;;;;;8.77;3.73;;;8.30;78.20;;;;;;4928146;28;20459;-88
2021/03/06 09:57:04;;;;;;;4.73;4.17;;;8.00;78.30;;;;;;4971275;28;20490;-87
2021/03/06 09:59:36;;;;;;;4.90;4.40;;;8.20;77.70;;;;;;4974284;28;20505;-90
2021/03/06 10:02:04;;;;;;;4.73;3.93;;;9.00;75.70;;;;;;4974184;28;20504;-87
2021/03/06 10:04:30;;;;;;;5.10;4.60;;;8.80;75.00;;;;;;4972852;28;21020;-88
2021/03/06 10:07:00;;;;;;;6.47;4.50;;;8.80;75.30;;;;;;4974147;28;20477;-88
2021/03/06 10:09:31;;;;;;;4.83;4.40;;;9.50;74.40;;;;;;4974104;28;20466;-88
2021/03/06 10:12:04;;;;;;;6.77;4.10;;;10.20;69.90;;;;;;4973947;28;20455;-87
2021/03/06 10:14:31;;;;;;;7.50;4.10;;;9.80;69.40;;;;;;4973948;28;20464;-88
2021/03/06 10:16:58;;;;;;;5.13;4.33;;;9.20;70.40;;;;;;4973998;28;20450;-86
2021/03/06 10:19:27;;;;;;;4.87;4.40;;;9.30;70.60;;;;;;4972601;28;20493;-90
2021/03/06 10:21:58;;;;;;;5.17;4.20;;;9.50;71.00;;;;;;4971744;28;20492;-87
2021/03/06 10:24:25;;;;;;;4.40;3.97;;;10.50;72.60;;;;;;4973823;28;20461;-87
2021/03/06 10:26:55;;;;;;;6.27;4.20;;;9.30;71.20;;;;;;4970965;28;20457;-87
2021/03/06 10:29:23;;;;;;;5.10;4.60;;;7.90;73.60;;;;;;4973882;28;20453;-86
2021/03/06 10:31:56;;;;;;;4.70;4.23;;;8.20;73.40;;;;;;4969816;28;20461;-88
2021/03/06 10:34:25;;;;;;;4.40;4.00;;;8.80;73.10;;;;;;4972627;28;20458;-88
2021/03/06 10:37:13;;;;;;;5.07;3.60;;;8.10;72.70;;;;;;4974111;28;20462;-92
2021/03/06 10:39:57;;;;;;;4.03;3.63;;;8.60;71.70;;;;;;4973530;28;20497;-88
2021/03/06 10:42:25;;;;;;;4.27;3.87;;;9.80;71.30;;;;;;4973368;28;21008;-87
2021/03/06 10:44:52;;;;;;;4.93;3.97;;;9.20;68.50;;;;;;4973706;28;20451;-86
2021/03/06 10:47:18;;;;;;;4.70;4.20;;;8.90;67.30;;;;;;4973510;28;20533;-85
2021/03/06 10:49:47;;;;;;;4.50;4.10;;;8.50;69.70;;;;;;4972427;28;20463;-88
2021/03/06 10:52:29;;;;;;;4.83;4.43;;;7.80;69.70;;;;;;4979924;28;20464;-87
2021/03/06 10:54:58;;;;;;;4.30;3.90;;;7.40;72.20;;;;;;4978044;28;20449;-88
2021/03/06 10:57:25;;;;;;;4.87;4.00;;;8.30;71.40;;;;;;4955162;29;20478;-89
2021/03/06 10:59:52;;;;;;;4.47;3.73;;;8.50;69.40;;;;;;4957958;28;20505;-87
2021/03/06 11:02:26;;;;;;;5.17;3.80;;;9.10;67.40;;;;;;4957969;28;20830;-88
2021/03/06 11:04:52;;;;;;;5.23;3.87;;;9.30;66.70;;;;;;4955849;28;20450;-87
2021/03/06 11:07:27;;;;;;;4.03;3.63;;;9.90;64.80;;;;;;4955542;28;20819;-88
2021/03/06 11:09:57;;;;;;;4.80;3.97;;;10.60;63.30;;;;;;4957200;29;20454;-84
2021/03/06 11:12:27;;;;;;;4.30;3.90;;;10.00;66.70;;;;;;4957333;29;20466;-86
2021/03/06 11:15:11;;;;;;;4.17;3.77;;;10.00;61.50;;;;;;4956656;29;20461;-84
2021/03/06 11:17:39;;;;;;;4.77;4.27;;;9.60;62.90;;;;;;4936770;29;20539;-85
2021/03/06 11:20:07;;;;;;;4.00;3.60;;;10.20;62.00;;;;;;4937444;29;20474;-85
2021/03/06 11:22:36;;;;;;;7.93;6.40;;;10.00;64.40;;;;;;4953720;28;20799;-87
2021/03/06 11:25:04;;;;;;;4.57;3.70;;;10.40;63.80;;;;;;4940188;29;20467;-86
2021/03/06 11:27:44;;;;;;;4.77;4.00;;;10.30;61.20;;;;;;4948600;29;21070;-86
2021/03/06 11:30:14;;;;;;;4.00;3.70;;;8.90;60.70;;;;;;4947920;29;20443;-86
2021/03/06 11:32:45;;;;;;;4.57;4.17;;;9.60;66.20;;;;;;4937961;28;20486;-86
2021/03/06 11:35:12;;;;;;;4.20;3.80;;;10.50;60.90;;;;;;4943627;29;20459;-86
2021/03/06 11:37:39;;;;;;;4.00;3.60;;;9.90;59.90;;;;;;4956516;29;20466;-85
2021/03/06 11:40:07;;;;;;;4.77;3.60;;;9.50;60.50;;;;;;4956746;29;20457;-85
2021/03/06 11:42:34;;;;;;;4.57;4.17;;;10.00;59.40;;;;;;4956796;29;20451;-86
2021/03/06 11:45:02;;;;;;;4.57;3.60;;;10.70;58.00;;;;;;4956786;29;20475;-87
2021/03/06 11:47:28;;;;;;;4.10;3.57;;;9.70;58.20;;;;;;4956199;29;20459;-85
2021/03/06 11:49:54;;;;;;;6.00;5.00;;;10.20;57.90;;;;;;4956130;29;20502;-86
2021/03/06 11:52:21;;;;;;;8.63;3.90;;;10.20;57.50;;;;;;4956921;29;20490;-87
2021/03/06 11:54:48;;;;;;;4.60;4.00;;;10.60;56.50;;;;;;4956978;29;20522;-86
2021/03/06 11:57:14;;;;;;;6.37;4.63;;;10.00;56.50;;;;;;4974973;28;20788;-89
2021/03/06 11:59:41;;;;;;;4.90;4.10;;;;;;;;;;4981753;28;20470;-90
2021/03/06 12:02:07;;;;;;;3.80;3.40;;;10.30;59.40;;;;;;4995275;28;20432;-91
2021/03/06 12:04:34;;;;;;;5.10;3.67;;;10.60;56.40;;;;;;4976610;28;20457;-90
2021/03/06 12:07:00;;;;;;;4.40;3.47;;;10.40;56.60;;;;;;4976402;28;20438;-87
2021/03/06 12:09:26;;;;;;;2.90;2.70;;;9.70;55.20;;;;;;4976479;28;20458;-87
2021/03/06 12:11:54;;;;;;;5.23;3.23;;;10.40;54.10;;;;;;4976165;28;20454;-86
2021/03/06 12:14:20;;;;;;;4.40;3.00;;;10.40;52.80;;;;;;4976165;28;20446;-88
2021/03/06 12:16:46;;;;;;;2.70;2.50;;;10.30;51.90;;;;;;4973232;28;20442;-85
2021/03/06 12:19:13;;;;;;;3.20;2.90;;;10.20;52.00;;;;;;4974546;28;20498;-87
2021/03/06 12:21:42;;;;;;;10.00;3.40;;;10.40;52.70;;;;;;4980336;28;20449;-85
2021/03/06 12:24:09;;;;;;;2.80;2.60;;;10.50;52.20;;;;;;4971982;28;20447;-86
2021/03/06 12:26:35;;;;;;;4.10;1.90;;;10.90;52.00;;;;;;4964318;28;20803;-87
2021/03/06 12:29:03;;;;;;;2.50;2.30;;;10.00;49.50;;;;;;4976166;28;20459;-86
2021/03/06 12:31:29;;;;;;;4.50;3.10;;;10.20;49.60;;;;;;4975782;28;20450;-86
2021/03/06 12:33:55;;;;;;;3.13;2.83;;;9.50;52.40;;;;;;4975220;28;20455;-89
2021/03/06 12:36:22;;;;;;;2.77;1.93;;;10.40;58.10;;;;;;4976642;28;20442;-89
2021/03/06 12:38:48;;;;;;;3.80;3.30;;;;;;;;;;4966209;28;20918;-86
2021/03/06 12:41:15;;;;;;;3.67;3.10;;;10.30;49.80;;;;;;4964026;28;20446;-89
2021/03/06 12:43:41;;;;;;;4.20;3.30;;;10.10;54.20;;;;;;4975305;28;20511;-88
2021/03/06 12:46:09;;;;;;;6.30;3.53;;;10.80;57.50;;;;;;4975559;28;20454;-88
2021/03/06 12:48:35;;;;;;;3.63;3.33;;;11.60;56.00;;;;;;4966310;28;20454;-87
2021/03/06 12:51:02;;;;;;;4.17;3.77;;;10.10;53.50;;;;;;4975373;28;20454;-89
2021/03/06 12:53:31;;;;;;;4.10;3.73;;;11.10;57.00;;;;;;4975055;28;20453;-93
2021/03/06 12:55:57;;;;;;;4.37;3.40;;;10.80;57.60;;;;;;4965858;28;20482;-90
2021/03/06 12:58:24;;;;;;;4.97;3.53;;;11.40;57.60;;;;;;4968053;28;20494;-88